Time;durP1;ratioP1;P1;durP2;ratioP2;P2;SDS_P1;SDS_P2;PMS_P1;PMS_P2;Temp;Humidity;BMP_temperature;BMP_pressure;BME280_temperature;BME280_humidity;BME280_pressure;Samples;Min_cycle;Max_cycle;Signal;HPM_P1;HPM_P2
2021/06/29 00:00:06;;;;;;;11.27;5.00;;;14.90;94.40;;;;;;5063973;28;20104;-84
2021/06/29 00:02:31;;;;;;;6.95;4.95;;;14.90;94.50;;;;;;5063811;28;20047;-85
2021/06/29 00:04:57;;;;;;;8.48;5.05;;;14.90;94.50;;;;;;5066128;28;20020;-84
2021/06/29 00:07:23;;;;;;;10.13;5.80;;;14.90;94.50;;;;;;5063046;28;20028;-84
2021/06/29 00:09:54;;;;;;;7.47;5.07;;;14.90;94.50;;;;;;5063149;28;20033;-84
2021/06/29 00:12:20;;;;;;;6.70;5.03;;;14.90;94.60;;;;;;5057563;28;20025;-83
2021/06/29 00:14:46;;;;;;;6.35;4.57;;;14.90;94.70;;;;;;5061122;28;20322;-86
2021/06/29 00:17:12;;;;;;;8.23;5.10;;;14.90;94.70;;;;;;5062088;28;20417;-86
2021/06/29 00:19:38;;;;;;;6.55;4.80;;;14.90;94.80;;;;;;5062727;28;20037;-85
2021/06/29 00:22:06;;;;;;;7.50;5.13;;;14.90;94.90;;;;;;5057629;28;20446;-85
2021/06/29 00:24:32;;;;;;;7.43;5.20;;;14.90;94.90;;;;;;5059754;28;20294;-85
2021/06/29 00:26:58;;;;;;;8.48;5.82;;;14.90;95.10;;;;;;5061619;28;20020;-85
2021/06/29 00:29:23;;;;;;;8.63;5.53;;;14.90;95.00;;;;;;5059544;28;20031;-84
2021/06/29 00:31:49;;;;;;;6.63;4.70;;;14.90;95.00;;;;;;5067258;28;20436;-84
2021/06/29 00:34:15;;;;;;;6.05;4.63;;;15.00;94.90;;;;;;5067004;28;20566;-85
2021/06/29 00:36:40;;;;;;;6.57;4.30;;;15.00;95.10;;;;;;5060347;28;20429;-85
2021/06/29 00:39:06;;;;;;;5.55;4.05;;;15.00;95.20;;;;;;5062296;28;20039;-84
2021/06/29 00:41:32;;;;;;;5.75;3.90;;;15.00;95.60;;;;;;5063577;28;20031;-85
2021/06/29 00:43:58;;;;;;;7.30;3.70;;;14.90;95.90;;;;;;5061368;28;20049;-84
2021/06/29 00:46:23;;;;;;;5.35;3.10;;;14.90;96.80;;;;;;5056818;28;20077;-84
2021/06/29 00:48:50;;;;;;;7.75;4.00;;;15.00;97.10;;;;;;5065860;28;20055;-84
2021/06/29 00:51:17;;;;;;;9.15;4.65;;;15.00;96.90;;;;;;5059928;28;20035;-85
2021/06/29 00:53:48;;;;;;;6.70;4.00;;;15.00;96.80;;;;;;5064766;28;20044;-84
2021/06/29 00:56:14;;;;;;;8.48;4.35;;;15.00;97.10;;;;;;5060388;28;20054;-83
2021/06/29 00:58:44;;;;;;;6.75;4.43;;;15.00;97.20;;;;;;5062418;28;20449;-84
2021/06/29 01:01:11;;;;;;;7.57;3.92;;;15.00;97.30;;;;;;5057954;28;20104;-83
2021/06/29 01:03:38;;;;;;;6.85;4.50;;;15.00;97.50;;;;;;5066299;28;20025;-84
2021/06/29 01:06:07;;;;;;;7.88;5.15;;;15.00;97.80;;;;;;5055719;28;20120;-84
2021/06/29 01:08:32;;;;;;;11.52;5.05;;;15.00;97.90;;;;;;5063642;28;20033;-84
2021/06/29 01:10:58;;;;;;;7.32;4.43;;;15.00;98.00;;;;;;5062317;28;20048;-84
2021/06/29 01:13:39;;;;;;;5.53;3.88;;;15.10;98.00;;;;;;5058463;28;20037;-83
2021/06/29 01:16:06;;;;;;;5.93;4.03;;;15.10;98.00;;;;;;5057344;28;20029;-83
2021/06/29 01:18:36;;;;;;;5.90;4.20;;;15.10;98.00;;;;;;5061005;28;20079;-84
2021/06/29 01:21:03;;;;;;;6.60;4.40;;;15.20;98.00;;;;;;5059650;28;20025;-83
2021/06/29 01:23:30;;;;;;;6.97;4.35;;;15.20;98.00;;;;;;5062432;28;20029;-82
2021/06/29 01:26:24;;;;;;;6.30;4.63;;;15.20;98.00;;;;;;5062093;28;20032;-83
2021/06/29 01:31:16;;;;;;;7.40;4.90;;;15.10;98.00;;;;;;5064148;28;20025;-83
2021/06/29 01:33:43;;;;;;;9.30;4.75;;;15.10;98.00;;;;;;5063241;28;20040;-83
2021/06/29 01:36:10;;;;;;;6.80;4.97;;;15.10;97.90;;;;;;5063219;28;20433;-81
2021/06/29 01:38:36;;;;;;;8.80;5.43;;;15.10;97.90;;;;;;5063779;28;20039;-83
2021/06/29 01:41:01;;;;;;;6.35;4.65;;;15.10;98.00;;;;;;5060069;28;20321;-83
2021/06/29 01:43:31;;;;;;;9.80;4.95;;;15.20;98.00;;;;;;5060480;28;20068;-83
2021/06/29 01:45:57;;;;;;;7.88;4.90;;;15.20;97.90;;;;;;5058334;28;20021;-83
2021/06/29 01:48:24;;;;;;;6.82;4.78;;;15.20;98.00;;;;;;5066264;28;20104;-83
2021/06/29 01:50:55;;;;;;;7.43;5.03;;;15.10;98.00;;;;;;5058750;28;20021;-83
2021/06/29 01:53:22;;;;;;;6.07;3.92;;;15.10;98.00;;;;;;5064047;28;20546;-83
2021/06/29 01:55:48;;;;;;;6.03;4.15;;;15.10;98.00;;;;;;5059622;28;20047;-83
2021/06/29 01:58:21;;;;;;;7.45;4.25;;;15.20;98.00;;;;;;5055515;28;20097;-83
2021/06/29 02:00:47;;;;;;;10.77;4.63;;;15.10;98.00;;;;;;5060536;28;20025;-83
2021/06/29 02:03:13;;;;;;;6.00;4.35;;;15.10;98.00;;;;;;5060862;28;20099;-83
2021/06/29 02:05:38;;;;;;;8.63;4.10;;;15.10;98.00;;;;;;5058590;28;20119;-84
2021/06/29 02:08:04;;;;;;;8.75;4.15;;;15.10;98.00;;;;;;5058128;28;20024;-83
2021/06/29 02:10:30;;;;;;;7.25;3.97;;;15.10;98.00;;;;;;5062074;28;20043;-84
2021/06/29 02:12:57;;;;;;;4.97;3.33;;;15.00;98.00;;;;;;5058114;28;20100;-84
2021/06/29 02:15:24;;;;;;;6.78;3.28;;;15.00;98.00;;;;;;5055975;28;20029;-85
2021/06/29 02:17:49;;;;;;;7.25;3.33;;;15.10;98.00;;;;;;5058703;28;20314;-83
2021/06/29 02:20:17;;;;;;;4.53;3.13;;;15.10;98.00;;;;;;5063110;28;20029;-84
2021/06/29 02:22:45;;;;;;;4.70;3.22;;;15.00;98.00;;;;;;5063728;28;20121;-84
2021/06/29 02:25:11;;;;;;;5.38;3.45;;;15.00;98.00;;;;;;5060162;28;20420;-84
2021/06/29 02:27:40;;;;;;;5.57;3.42;;;15.00;98.00;;;;;;5056381;28;20334;-84
2021/06/29 02:30:07;;;;;;;5.20;3.15;;;15.00;98.00;;;;;;5056009;28;20299;-84
2021/06/29 02:32:33;;;;;;;5.18;3.20;;;15.00;98.00;;;;;;5056122;28;20097;-85
2021/06/29 02:34:58;;;;;;;4.60;2.88;;;14.90;98.00;;;;;;5053850;28;20469;-84
2021/06/29 02:37:25;;;;;;;4.05;2.53;;;14.90;98.00;;;;;;5057804;28;20020;-83
2021/06/29 02:39:51;;;;;;;12.77;3.15;;;14.90;98.00;;;;;;5057873;28;20028;-84
2021/06/29 02:42:18;;;;;;;6.15;3.38;;;14.90;98.00;;;;;;5064043;28;20111;-84
2021/06/29 02:44:45;;;;;;;6.97;2.90;;;14.90;98.00;;;;;;5057369;28;20076;-84
2021/06/29 02:47:12;;;;;;;5.25;2.72;;;14.90;98.00;;;;;;5059833;28;20017;-83
2021/06/29 02:49:38;;;;;;;5.18;3.00;;;14.90;98.00;;;;;;5061088;28;20112;-84
2021/06/29 02:52:05;;;;;;;5.13;3.03;;;14.90;98.00;;;;;;5054653;28;20163;-84
2021/06/29 02:54:30;;;;;;;4.93;2.90;;;14.90;98.00;;;;;;5059289;28;20033;-84
2021/06/29 02:56:56;;;;;;;6.32;2.85;;;14.90;98.00;;;;;;5057668;28;20054;-83
2021/06/29 02:59:25;;;;;;;4.43;2.65;;;14.90;98.00;;;;;;5061405;28;20158;-83
2021/06/29 03:01:51;;;;;;;6.22;3.25;;;14.90;98.00;;;;;;5060163;28;20103;-84
2021/06/29 03:04:17;;;;;;;6.28;3.13;;;14.80;98.00;;;;;;5058232;28;20484;-83
2021/06/29 03:06:43;;;;;;;4.53;3.10;;;14.80;98.00;;;;;;5066089;28;20061;-83
2021/06/29 03:09:11;;;;;;;5.10;3.40;;;14.90;98.00;;;;;;5065207;28;20036;-86
2021/06/29 03:11:38;;;;;;;5.43;2.95;;;14.90;98.00;;;;;;5062525;28;20142;-85
2021/06/29 03:14:04;;;;;;;4.68;2.95;;;14.80;98.00;;;;;;5061313;28;20023;-84
2021/06/29 03:16:30;;;;;;;4.45;3.05;;;14.90;98.00;;;;;;5061008;28;20032;-84
2021/06/29 03:18:56;;;;;;;5.25;2.97;;;14.90;98.00;;;;;;5056032;28;20060;-84
2021/06/29 03:21:23;;;;;;;5.15;2.88;;;14.90;98.00;;;;;;5059549;28;20025;-84
2021/06/29 03:23:50;;;;;;;4.53;2.60;;;14.90;98.00;;;;;;5063901;28;20044;-84
2021/06/29 03:26:15;;;;;;;6.95;3.00;;;14.80;98.00;;;;;;5066301;28;20019;-84
2021/06/29 03:28:41;;;;;;;5.18;2.83;;;14.80;98.00;;;;;;5063008;28;20021;-83
2021/06/29 03:31:07;;;;;;;4.90;2.97;;;14.80;98.00;;;;;;5059248;28;20029;-84
2021/06/29 03:33:33;;;;;;;8.27;2.72;;;14.90;98.00;;;;;;5054240;28;20024;-83
2021/06/29 03:35:59;;;;;;;6.03;2.97;;;15.00;98.00;;;;;;5062525;28;20033;-83
2021/06/29 03:38:25;;;;;;;4.80;3.10;;;15.00;98.00;;;;;;5058166;28;20481;-83
2021/06/29 03:40:51;;;;;;;4.82;2.75;;;14.90;98.00;;;;;;5063098;28;20043;-83
2021/06/29 03:43:16;;;;;;;5.45;3.22;;;14.90;98.00;;;;;;5061531;28;20429;-83
2021/06/29 03:45:42;;;;;;;4.45;2.63;;;14.80;98.00;;;;;;5062705;28;20020;-84
2021/06/29 03:48:08;;;;;;;7.57;2.50;;;14.80;98.00;;;;;;5058304;28;20017;-82
2021/06/29 03:50:34;;;;;;;4.00;2.75;;;14.80;98.00;;;;;;5056325;28;20033;-83
2021/06/29 03:53:00;;;;;;;4.28;2.67;;;14.80;98.00;;;;;;5064401;28;20059;-83
2021/06/29 03:55:25;;;;;;;4.03;2.60;;;14.80;98.00;;;;;;5063552;28;20028;-84
2021/06/29 03:57:51;;;;;;;7.22;3.10;;;14.70;98.00;;;;;;5063183;28;20024;-83
2021/06/29 04:00:17;;;;;;;3.70;2.28;;;14.70;98.00;;;;;;5066152;28;20433;-84
2021/06/29 04:02:43;;;;;;;4.43;3.00;;;14.60;98.00;;;;;;5063736;28;20097;-83
2021/06/29 04:05:09;;;;;;;4.72;2.50;;;14.50;98.00;;;;;;5060211;28;20032;-83
2021/06/29 04:07:35;;;;;;;4.80;3.17;;;14.50;98.00;;;;;;5060321;28;20390;-82
2021/06/29 04:10:05;;;;;;;4.40;3.00;;;14.50;98.00;;;;;;5064219;28;20099;-82
2021/06/29 04:12:30;;;;;;;5.57;3.10;;;14.50;98.00;;;;;;5065090;28;20025;-83
2021/06/29 04:14:56;;;;;;;5.25;3.15;;;14.40;98.00;;;;;;5060579;28;20035;-82
2021/06/29 04:17:25;;;;;;;5.25;2.50;;;14.30;98.00;;;;;;5056544;28;20037;-83
2021/06/29 04:19:51;;;;;;;4.22;2.58;;;14.30;98.00;;;;;;5043421;28;20121;-83
2021/06/29 04:22:16;;;;;;;4.95;2.60;;;14.30;98.00;;;;;;5058857;28;20401;-83
2021/06/29 04:24:42;;;;;;;4.43;3.00;;;14.30;98.00;;;;;;5063567;28;20043;-83
2021/06/29 04:27:08;;;;;;;4.43;2.75;;;14.30;98.00;;;;;;5058417;28;20025;-83
2021/06/29 04:29:34;;;;;;;4.30;2.45;;;14.30;98.00;;;;;;5054565;28;20028;-83
2021/06/29 04:31:59;;;;;;;5.93;2.80;;;14.40;98.00;;;;;;5059936;28;20032;-83
2021/06/29 04:34:25;;;;;;;5.30;2.83;;;14.40;98.00;;;;;;5057823;28;20048;-83
2021/06/29 04:36:51;;;;;;;4.50;2.60;;;14.40;98.00;;;;;;5059521;28;20508;-83
2021/06/29 04:39:16;;;;;;;3.88;2.47;;;14.40;98.00;;;;;;5062351;28;20044;-83
2021/06/29 04:41:42;;;;;;;4.25;2.42;;;14.50;98.00;;;;;;5064864;28;20411;-83
2021/06/29 04:44:08;;;;;;;5.75;2.67;;;14.60;98.00;;;;;;5057876;28;21669;-83
2021/06/29 04:46:33;;;;;;;3.85;2.42;;;14.60;98.00;;;;;;5059637;28;20020;-82
2021/06/29 04:48:59;;;;;;;6.57;2.70;;;14.60;98.00;;;;;;5061011;28;20099;-83
2021/06/29 04:51:25;;;;;;;4.13;2.42;;;14.70;98.00;;;;;;5061771;28;20131;-84
2021/06/29 04:53:51;;;;;;;4.10;2.33;;;14.60;98.00;;;;;;5056490;28;20071;-84
2021/06/29 04:56:17;;;;;;;9.73;2.60;;;14.60;98.00;;;;;;5056111;28;20389;-84
2021/06/29 04:58:54;;;;;;;9.23;2.60;;;14.60;98.00;;;;;;5054817;28;20028;-83
2021/06/29 05:01:22;;;;;;;5.30;2.78;;;14.60;98.00;;;;;;5060438;28;20041;-83
2021/06/29 05:03:48;;;;;;;4.15;2.38;;;14.60;98.00;;;;;;5060853;28;20033;-82
2021/06/29 05:06:18;;;;;;;4.60;2.22;;;14.60;98.00;;;;;;5064128;28;20023;-84
2021/06/29 05:08:44;;;;;;;4.50;1.95;;;14.60;98.00;;;;;;5058443;28;20021;-83
2021/06/29 05:11:10;;;;;;;4.13;2.15;;;14.60;98.00;;;;;;5060810;28;20321;-83
2021/06/29 05:13:36;;;;;;;3.35;1.83;;;14.70;98.00;;;;;;5061290;28;20017;-83
2021/06/29 05:16:02;;;;;;;5.75;2.20;;;14.70;98.00;;;;;;5061766;28;20033;-83
2021/06/29 05:18:28;;;;;;;3.78;2.22;;;14.80;98.00;;;;;;5061277;28;20013;-83
2021/06/29 05:20:54;;;;;;;3.58;1.80;;;14.80;98.00;;;;;;5073615;28;20421;-83
2021/06/29 05:23:21;;;;;;;3.08;1.75;;;14.80;98.00;;;;;;5075226;28;20092;-83
2021/06/29 05:25:47;;;;;;;3.88;1.88;;;14.80;98.00;;;;;;5059581;28;20033;-83
2021/06/29 05:28:13;;;;;;;4.03;1.80;;;14.90;98.00;;;;;;5059886;28;20483;-83
2021/06/29 05:30:39;;;;;;;4.28;1.90;;;15.00;98.00;;;;;;5062045;28;20078;-83
2021/06/29 05:33:05;;;;;;;3.55;1.73;;;15.10;98.00;;;;;;5061714;28;20425;-84
2021/06/29 05:35:31;;;;;;;4.32;2.20;;;15.20;98.00;;;;;;5059864;28;20052;-83
2021/06/29 05:37:56;;;;;;;3.15;1.55;;;15.30;97.50;;;;;;5063369;28;20455;-82
2021/06/29 05:40:22;;;;;;;3.25;1.73;;;15.40;97.50;;;;;;5063376;28;20032;-83
2021/06/29 05:42:48;;;;;;;2.38;1.40;;;15.60;96.90;;;;;;5058691;28;20409;-82
2021/06/29 05:45:15;;;;;;;2.78;1.83;;;15.70;97.00;;;;;;5058618;28;20063;-83
2021/06/29 05:47:41;;;;;;;3.28;1.73;;;15.70;97.40;;;;;;5063405;28;20036;-83
2021/06/29 05:50:12;;;;;;;3.45;1.70;;;15.90;96.40;;;;;;5062615;28;20030;-83
2021/06/29 05:52:38;;;;;;;3.20;1.63;;;16.00;96.60;;;;;;5067960;28;20020;-82
2021/06/29 05:55:05;;;;;;;4.82;1.70;;;16.20;96.60;;;;;;5055093;28;20103;-83
2021/06/29 05:57:31;;;;;;;3.85;1.90;;;16.40;96.70;;;;;;5055450;28;20021;-81
2021/06/29 05:59:57;;;;;;;3.33;1.50;;;16.50;96.30;;;;;;5054780;28;20052;-81
2021/06/29 06:02:23;;;;;;;2.92;1.55;;;16.50;96.10;;;;;;5053600;28;20073;-82
2021/06/29 06:04:48;;;;;;;4.20;1.98;;;16.40;95.20;;;;;;5053807;28;20033;-84
2021/06/29 06:07:14;;;;;;;3.72;1.80;;;16.40;95.70;;;;;;5053674;28;20024;-83
2021/06/29 06:09:39;;;;;;;3.78;1.40;;;16.50;95.50;;;;;;5044409;28;20434;-83
2021/06/29 06:12:06;;;;;;;3.25;1.80;;;16.60;95.80;;;;;;5033960;28;20021;-83
2021/06/29 06:14:31;;;;;;;3.63;1.67;;;16.70;95.20;;;;;;5044199;28;20159;-83
2021/06/29 06:16:57;;;;;;;4.30;1.88;;;16.70;95.70;;;;;;5049529;28;20108;-82
2021/06/29 06:19:23;;;;;;;3.00;1.60;;;16.80;95.50;;;;;;5034007;28;20028;-83
2021/06/29 06:21:52;;;;;;;2.92;1.60;;;16.70;95.80;;;;;;5039486;28;20039;-84
2021/06/29 06:24:18;;;;;;;4.50;1.80;;;16.50;96.20;;;;;;5055035;28;20025;-83
2021/06/29 06:26:44;;;;;;;3.03;1.60;;;16.40;96.00;;;;;;5054004;28;20078;-84
2021/06/29 06:29:09;;;;;;;5.57;1.60;;;16.40;96.10;;;;;;5054650;28;20024;-83
2021/06/29 06:31:35;;;;;;;3.33;1.70;;;16.40;96.80;;;;;;5048254;28;20029;-83
2021/06/29 06:34:01;;;;;;;6.25;2.08;;;16.60;97.20;;;;;;5053601;28;20119;-83
2021/06/29 06:36:26;;;;;;;2.97;1.50;;;16.80;97.10;;;;;;5052673;28;20342;-83
2021/06/29 06:38:52;;;;;;;3.20;1.50;;;17.00;96.60;;;;;;5051410;28;20024;-83
2021/06/29 06:41:18;;;;;;;4.40;1.50;;;17.20;95.90;;;;;;5052834;28;20033;-83
2021/06/29 06:43:44;;;;;;;3.22;1.55;;;17.40;95.40;;;;;;5042983;28;20072;-83
2021/06/29 06:46:11;;;;;;;2.95;1.60;;;17.50;94.70;;;;;;5049280;28;20083;-83
2021/06/29 06:48:38;;;;;;;2.83;1.48;;;17.50;94.90;;;;;;5040054;28;20021;-82
2021/06/29 06:51:04;;;;;;;3.45;1.65;;;17.40;94.50;;;;;;5033376;28;20330;-84
2021/06/29 06:53:30;;;;;;;3.00;1.50;;;17.40;94.80;;;;;;5053632;28;20024;-82
2021/06/29 06:55:57;;;;;;;3.22;1.48;;;17.50;94.30;;;;;;5054387;28;20023;-82
2021/06/29 06:58:22;;;;;;;2.13;1.23;;;17.60;93.60;;;;;;5054876;28;20409;-83
2021/06/29 07:00:48;;;;;;;4.05;1.30;;;17.80;92.80;;;;;;5053727;28;20116;-83
2021/06/29 07:03:14;;;;;;;3.85;1.40;;;18.00;92.60;;;;;;5054400;28;20025;-82
2021/06/29 07:05:40;;;;;;;2.78;1.38;;;17.90;93.20;;;;;;5052334;28;20032;-83
2021/06/29 07:08:05;;;;;;;5.40;1.70;;;17.90;93.20;;;;;;5035338;28;20040;-82
2021/06/29 07:10:31;;;;;;;2.83;1.42;;;18.00;92.00;;;;;;5034954;28;20071;-83
2021/06/29 07:12:56;;;;;;;3.05;1.42;;;18.10;92.80;;;;;;5034382;28;20037;-82
2021/06/29 07:15:22;;;;;;;2.08;1.20;;;18.40;93.00;;;;;;5034653;28;20057;-83
2021/06/29 07:17:48;;;;;;;2.50;1.20;;;18.60;92.80;;;;;;5033727;28;20492;-82
2021/06/29 07:20:13;;;;;;;2.55;1.30;;;18.80;92.30;;;;;;5050172;28;20096;-83
2021/06/29 07:22:40;;;;;;;2.80;1.25;;;18.80;91.10;;;;;;5053352;28;20086;-82
2021/06/29 07:25:07;;;;;;;2.95;1.23;;;18.90;90.90;;;;;;5054182;28;20477;-83
2021/06/29 07:27:33;;;;;;;2.60;1.20;;;19.10;91.90;;;;;;5054616;28;20330;-83
2021/06/29 07:29:59;;;;;;;3.60;1.10;;;19.90;90.60;;;;;;5053058;28;20017;-83
2021/06/29 07:32:25;;;;;;;1.50;0.90;;;20.90;86.70;;;;;;5054581;28;20027;-84
2021/06/29 07:34:51;;;;;;;2.72;1.10;;;21.70;84.10;;;;;;5052193;28;20376;-83
2021/06/29 07:37:17;;;;;;;1.80;1.00;;;23.20;79.10;;;;;;5054120;28;20029;-83
2021/06/29 07:39:43;;;;;;;1.90;1.10;;;23.60;79.70;;;;;;5053873;28;20037;-84
2021/06/29 07:42:11;;;;;;;1.40;0.85;;;23.20;78.90;;;;;;5053983;28;20029;-83
2021/06/29 07:44:37;;;;;;;1.23;0.70;;;23.50;76.80;;;;;;5053968;28;20041;-84
2021/06/29 07:47:03;;;;;;;2.95;1.10;;;24.20;77.10;;;;;;5054072;28;20017;-84
2021/06/29 07:49:28;;;;;;;1.27;0.85;;;25.40;74.40;;;;;;5052728;28;20025;-84
2021/06/29 07:51:54;;;;;;;1.65;0.82;;;25.60;73.40;;;;;;5055750;28;20025;-84
2021/06/29 07:54:20;;;;;;;2.95;1.05;;;24.80;74.90;;;;;;5057823;28;20326;-84
2021/06/29 07:56:45;;;;;;;1.73;0.90;;;23.80;76.50;;;;;;5056172;28;20516;-83
2021/06/29 07:59:11;;;;;;;1.58;0.80;;;24.30;74.90;;;;;;5043589;28;20425;-84
2021/06/29 08:01:37;;;;;;;2.17;0.95;;;25.40;72.60;;;;;;5037826;28;20461;-84
2021/06/29 08:04:03;;;;;;;2.13;0.90;;;25.80;72.30;;;;;;5036292;28;20075;-83
2021/06/29 08:06:29;;;;;;;2.20;0.80;;;26.50;70.60;;;;;;5036547;28;20049;-83
2021/06/29 08:08:55;;;;;;;3.10;0.80;;;26.10;70.90;;;;;;5037451;28;20347;-84
2021/06/29 08:11:21;;;;;;;1.55;0.90;;;26.40;72.60;;;;;;5037633;28;20032;-84
2021/06/29 08:13:47;;;;;;;2.10;1.00;;;26.40;71.90;;;;;;5041510;28;20025;-83
2021/06/29 08:16:13;;;;;;;1.83;0.90;;;25.40;72.60;;;;;;5048828;28;20090;-83
2021/06/29 08:18:39;;;;;;;3.97;1.10;;;25.50;73.10;;;;;;5054335;28;20498;-83
2021/06/29 08:21:06;;;;;;;2.35;1.10;;;24.90;75.60;;;;;;5055801;28;20025;-83
2021/06/29 08:23:32;;;;;;;3.40;1.60;;;23.70;76.80;;;;;;5057418;28;20475;-83
2021/06/29 08:25:58;;;;;;;2.22;1.30;;;22.80;80.70;;;;;;5056911;28;20112;-83
2021/06/29 08:28:24;;;;;;;2.92;1.13;;;22.30;82.40;;;;;;5057136;28;20418;-83
2021/06/29 08:30:52;;;;;;;2.55;1.13;;;22.50;82.30;;;;;;5051694;28;20030;-83
2021/06/29 08:33:21;;;;;;;2.83;1.20;;;22.90;81.20;;;;;;5056196;28;20070;-83
2021/06/29 08:35:48;;;;;;;2.25;1.20;;;22.90;81.20;;;;;;5048595;28;20038;-83
2021/06/29 08:38:15;;;;;;;2.08;1.00;;;23.10;79.90;;;;;;5053718;28;20060;-83
2021/06/29 08:40:42;;;;;;;2.35;1.23;;;23.20;78.90;;;;;;5049234;28;20325;-84
2021/06/29 08:43:09;;;;;;;2.35;1.27;;;23.90;79.60;;;;;;5036721;28;20330;-84
2021/06/29 08:45:36;;;;;;;1.48;0.98;;;26.10;76.80;;;;;;5054399;28;20033;-84
2021/06/29 08:48:02;;;;;;;2.47;1.02;;;28.00;69.50;;;;;;5053762;28;20325;-83
2021/06/29 08:50:31;;;;;;;1.80;1.00;;;28.10;68.60;;;;;;5053465;28;20302;-82
2021/06/29 08:53:04;;;;;;;2.63;1.38;;;27.50;70.30;;;;;;5054884;28;20094;-82
2021/06/29 08:55:39;;;;;;;3.22;1.40;;;26.10;73.20;;;;;;5056809;28;20371;-82
2021/06/29 08:58:05;;;;;;;3.08;1.35;;;24.70;76.00;;;;;;5055718;28;20037;-85
2021/06/29 09:00:32;;;;;;;3.42;1.30;;;24.00;77.90;;;;;;5055706;28;20310;-84
2021/06/29 09:03:00;;;;;;;2.50;1.30;;;23.40;80.70;;;;;;5055267;28;20029;-84
2021/06/29 09:05:28;;;;;;;5.10;1.33;;;23.30;80.70;;;;;;5054898;28;20059;-84
2021/06/29 09:08:07;;;;;;;2.78;1.38;;;23.20;80.40;;;;;;5055347;28;20025;-84
2021/06/29 09:10:39;;;;;;;3.20;1.40;;;23.20;81.70;;;;;;5056428;28;20021;-84
2021/06/29 09:13:06;;;;;;;4.53;1.20;;;23.50;81.00;;;;;;5051141;28;20040;-85
2021/06/29 09:15:43;;;;;;;2.80;1.30;;;24.10;80.10;;;;;;5055080;28;20021;-83
2021/06/29 09:18:18;;;;;;;2.03;1.15;;;25.80;75.60;;;;;;5053720;28;20029;-85
2021/06/29 09:20:54;;;;;;;1.95;1.15;;;27.50;71.90;;;;;;5052303;28;20112;-84
2021/06/29 09:23:30;;;;;;;2.22;1.33;;;28.50;70.00;;;;;;5052236;28;20179;-84
2021/06/29 09:26:02;;;;;;;2.40;0.80;;;29.50;68.40;;;;;;5046906;28;20044;-84
2021/06/29 09:28:34;;;;;;;1.48;0.77;;;30.60;63.10;;;;;;5035123;28;20049;-84
2021/06/29 09:31:07;;;;;;;1.73;0.73;;;30.60;62.40;;;;;;5042022;28;20021;-85
2021/06/29 09:33:43;;;;;;;1.73;0.88;;;29.90;64.60;;;;;;5056014;28;20017;-85
2021/06/29 09:36:15;;;;;;;2.08;0.90;;;29.40;64.70;;;;;;5052548;28;20078;-85
2021/06/29 09:38:44;;;;;;;2.78;1.20;;;28.70;64.40;;;;;;5055372;28;20029;-84
2021/06/29 09:41:16;;;;;;;3.78;1.50;;;27.80;70.30;;;;;;5054886;28;20345;-85
2021/06/29 09:43:50;;;;;;;2.30;1.10;;;27.80;71.90;;;;;;5053999;28;20033;-85
2021/06/29 09:46:17;;;;;;;1.92;1.00;;;27.90;69.90;;;;;;5053699;28;20063;-85
2021/06/29 09:48:45;;;;;;;4.32;1.40;;;28.40;70.10;;;;;;5075808;28;20027;-85
2021/06/29 09:51:14;;;;;;;3.72;1.17;;;28.60;68.40;;;;;;5064252;28;20028;-85
2021/06/29 09:53:43;;;;;;;2.22;1.33;;;28.50;69.10;;;;;;5054477;28;20017;-85
2021/06/29 09:56:15;;;;;;;2.78;1.10;;;28.60;68.70;;;;;;5054465;28;20025;-85
2021/06/29 09:58:49;;;;;;;2.28;1.00;;;28.80;69.40;;;;;;5058483;28;20013;-85
2021/06/29 10:01:15;;;;;;;1.88;0.95;;;29.00;67.80;;;;;;5075637;28;20413;-85
2021/06/29 10:03:42;;;;;;;4.45;1.10;;;29.00;65.50;;;;;;5071656;28;20044;-85
2021/06/29 10:06:17;;;;;;;2.35;1.15;;;29.60;67.80;;;;;;5055075;28;20112;-85
2021/06/29 10:08:45;;;;;;;1.77;0.90;;;29.10;66.30;;;;;;5043841;28;20028;-86
2021/06/29 10:11:14;;;;;;;1.65;1.13;;;28.80;69.20;;;;;;5042199;28;20028;-86
2021/06/29 10:13:51;;;;;;;2.45;1.10;;;29.20;66.60;;;;;;5055007;28;20460;-85
2021/06/29 10:16:21;;;;;;;3.28;1.15;;;29.10;66.60;;;;;;5051628;28;20409;-86
2021/06/29 10:18:51;;;;;;;2.88;1.20;;;29.40;66.80;;;;;;5043348;28;20435;-86
2021/06/29 10:21:20;;;;;;;2.60;1.10;;;30.10;66.50;;;;;;5059937;28;20109;-82
2021/06/29 10:23:53;;;;;;;2.53;1.08;;;30.30;66.60;;;;;;5054366;28;20360;-87
2021/06/29 10:26:20;;;;;;;2.20;1.10;;;30.20;66.10;;;;;;5060535;28;20048;-86
2021/06/29 10:28:47;;;;;;;2.38;1.02;;;30.00;65.20;;;;;;5074156;28;20317;-87
2021/06/29 10:31:18;;;;;;;2.83;1.35;;;29.50;66.50;;;;;;5073058;28;20375;-87
2021/06/29 10:33:46;;;;;;;1.52;0.90;;;29.10;66.90;;;;;;5054832;28;20032;-87
2021/06/29 10:36:13;;;;;;;2.13;1.25;;;29.00;66.50;;;;;;5054783;28;20025;-86
2021/06/29 10:38:39;;;;;;;2.78;1.50;;;28.70;67.60;;;;;;5054682;28;20032;-86
2021/06/29 10:41:05;;;;;;;3.85;1.27;;;28.20;69.20;;;;;;5056371;28;20513;-86
2021/06/29 10:43:34;;;;;;;3.38;1.15;;;28.50;69.70;;;;;;5055905;28;20081;-86
2021/06/29 10:46:01;;;;;;;2.72;1.30;;;28.60;70.10;;;;;;5055831;28;20086;-86
2021/06/29 10:48:28;;;;;;;2.97;1.15;;;28.60;68.60;;;;;;5054662;28;20021;-87
2021/06/29 10:50:56;;;;;;;6.15;1.35;;;28.00;68.90;;;;;;5054437;28;20028;-86
2021/06/29 10:53:39;;;;;;;2.83;1.35;;;27.80;70.00;;;;;;5049088;28;20032;-86
2021/06/29 10:56:27;;;;;;;2.37;1.20;;;28.20;69.70;;;;;;5053603;28;20036;-87
2021/06/29 10:58:52;;;;;;;2.00;1.17;;;27.90;69.50;;;;;;5054926;28;20131;-87
2021/06/29 11:01:24;;;;;;;4.28;1.38;;;27.50;70.20;;;;;;5056158;28;20056;-87
2021/06/29 11:03:51;;;;;;;3.55;1.13;;;27.10;70.80;;;;;;5055391;28;20029;-86
2021/06/29 11:06:44;;;;;;;4.30;0.90;;;27.10;71.40;;;;;;5056328;28;20119;-86
2021/06/29 11:09:20;;;;;;;3.70;1.40;;;28.00;68.40;;;;;;5064567;28;20025;-88
2021/06/29 11:12:22;;;;;;;3.08;1.30;;;28.10;68.50;;;;;;5048023;28;20021;-88
2021/06/29 11:14:49;;;;;;;1.77;1.10;;;28.20;69.10;;;;;;5054626;28;20037;-88
2021/06/29 11:17:19;;;;;;;2.60;1.13;;;28.30;69.80;;;;;;5053261;28;20078;-87
2021/06/29 11:20:00;;;;;;;1.98;1.15;;;27.70;71.00;;;;;;5054447;28;20033;-88
2021/06/29 11:22:49;;;;;;;1.73;1.10;;;27.00;72.00;;;;;;5053411;28;20032;-87
2021/06/29 11:25:29;;;;;;;2.20;1.30;;;26.90;72.60;;;;;;5067224;28;20029;-88
2021/06/29 11:28:07;;;;;;;2.33;1.25;;;26.70;72.90;;;;;;5076628;28;20066;-88
2021/06/29 11:30:58;;;;;;;2.95;1.27;;;26.90;72.70;;;;;;5061490;28;20086;-88
2021/06/29 11:33:43;;;;;;;2.58;1.23;;;27.10;72.30;;;;;;5055269;28;20029;-87
2021/06/29 11:36:26;;;;;;;3.00;1.30;;;27.20;71.40;;;;;;5063641;28;20021;-88
2021/06/29 11:38:57;;;;;;;2.72;1.35;;;26.90;72.00;;;;;;5045452;28;20021;-87
2021/06/29 11:41:33;;;;;;;4.10;1.20;;;26.80;74.10;;;;;;5045596;28;20048;-86
2021/06/29 11:44:08;;;;;;;3.80;1.50;;;27.20;71.60;;;;;;5059790;28;20044;-87
2021/06/29 11:46:55;;;;;;;2.05;1.20;;;27.10;71.00;;;;;;5040087;28;20031;-87
2021/06/29 11:49:44;;;;;;;3.33;1.38;;;26.70;72.70;;;;;;5040890;28;20021;-88
2021/06/29 11:52:17;;;;;;;2.97;1.10;;;26.60;74.00;;;;;;5045886;28;20025;-88
2021/06/29 11:55:02;;;;;;;2.03;1.20;;;26.90;72.60;;;;;;5038428;28;20025;-89
2021/06/29 11:57:42;;;;;;;2.50;1.25;;;27.30;72.40;;;;;;5039028;28;20331;-88
2021/06/29 12:00:30;;;;;;;2.75;1.23;;;27.60;70.10;;;;;;5038918;28;20025;-88
2021/06/29 12:03:19;;;;;;;3.85;1.42;;;27.50;70.80;;;;;;5065727;28;20055;-90
2021/06/29 12:05:45;;;;;;;2.08;1.20;;;27.80;70.20;;;;;;5054785;28;20044;-89
2021/06/29 12:08:12;;;;;;;3.10;1.40;;;27.50;69.70;;;;;;5040683;28;20037;-89
2021/06/29 12:10:45;;;;;;;2.72;1.40;;;26.70;71.10;;;;;;5042441;28;20014;-90
2021/06/29 12:13:24;;;;;;;3.00;1.60;;;25.70;74.10;;;;;;5051008;28;20032;-89
2021/06/29 12:15:58;;;;;;;3.65;2.00;;;24.90;77.90;;;;;;5048033;28;20029;-89
2021/06/29 12:18:30;;;;;;;5.00;1.98;;;23.90;80.40;;;;;;5053905;28;20144;-89
2021/06/29 12:21:01;;;;;;;3.60;2.20;;;23.70;81.60;;;;;;5053969;28;20021;-89
2021/06/29 12:23:36;;;;;;;4.40;2.05;;;23.60;82.40;;;;;;5051719;28;20029;-88
2021/06/29 12:26:09;;;;;;;5.68;1.95;;;23.40;83.10;;;;;;5040687;28;20025;-89
2021/06/29 12:28:42;;;;;;;5.75;2.40;;;22.90;83.90;;;;;;5041596;28;20133;-88
2021/06/29 12:31:10;;;;;;;5.00;2.17;;;22.30;85.30;;;;;;5056366;28;20036;-89
2021/06/29 12:33:39;;;;;;;4.70;2.20;;;21.80;85.90;;;;;;5056050;28;20024;-88
2021/06/29 12:36:13;;;;;;;3.00;1.40;;;21.30;87.20;;;;;;5053936;28;20025;-90
2021/06/29 12:38:43;;;;;;;;;;;20.70;80.40;;;;;;5052751;28;20029;-87
2021/06/29 12:41:16;;;;;;;3.58;1.05;;;18.80;74.60;;;;;;5054694;28;19978;-89
2021/06/29 12:43:47;;;;;;;2.30;1.15;;;17.80;79.00;;;;;;5056109;28;20116;-88
2021/06/29 12:46:26;;;;;;;2.80;1.00;;;16.60;86.90;;;;;;5056570;28;20021;-82
2021/06/29 12:49:13;;;;;;;3.95;1.20;;;14.20;92.20;;;;;;5051084;28;20330;-84
2021/06/29 12:51:56;;;;;;;3.83;1.20;;;13.10;95.60;;;;;;5041058;28;20310;-83
2021/06/29 12:54:23;;;;;;;1.65;1.05;;;12.40;96.10;;;;;;5046152;28;20017;-85
2021/06/29 12:56:58;;;;;;;1.92;1.20;;;12.20;96.40;;;;;;5050255;28;20044;-83